createdAt,value
2019-03-10T00:01:01.824Z,6.44
2019-03-10T00:06:08.920Z,6.17
2019-03-10T00:11:16.582Z,6.35
2019-03-10T00:16:34.205Z,6.22
2019-03-10T00:21:39.704Z,6.21
2019-03-10T00:26:49.468Z,6.42
2019-03-10T00:32:01.437Z,6.33
2019-03-10T00:37:10.729Z,5.92
2019-03-10T00:42:47.796Z,6.13
2019-03-10T00:48:13.241Z,5.81
2019-03-10T00:53:24.823Z,5.95
2019-03-10T00:58:34.097Z,6.22
2019-03-10T01:03:44.646Z,6.25
2019-03-10T01:08:55.638Z,6.00
2019-03-10T01:14:03.486Z,6.35
2019-03-10T01:19:13.951Z,5.95
2019-03-10T01:24:20.377Z,6.13
2019-03-10T01:29:29.783Z,5.82
2019-03-10T01:34:54.403Z,6.14
2019-03-10T01:40:02.179Z,5.88
2019-03-10T01:45:16.853Z,5.98
2019-03-10T01:50:25.089Z,6.01
2019-03-10T01:55:34.416Z,6.21
2019-03-10T02:00:49.438Z,6.36
2019-03-10T02:05:53.304Z,6.22
2019-03-10T02:10:59.642Z,6.38
2019-03-10T02:16:07.369Z,6.33
2019-03-10T02:21:16.770Z,6.43
2019-03-10T02:26:22.779Z,6.22
2019-03-10T02:31:32.158Z,6.36
2019-03-10T02:36:42.479Z,6.35
2019-03-10T02:41:52.447Z,6.14
2019-03-10T02:46:58.409Z,6.52
2019-03-10T02:52:06.538Z,6.08
2019-03-10T02:57:13.011Z,6.64
2019-03-10T03:02:20.840Z,6.38
2019-03-10T03:07:30.833Z,6.18
2019-03-10T03:12:43.495Z,6.47
2019-03-10T03:17:51.829Z,6.67
2019-03-10T03:22:59.514Z,6.68
2019-03-10T03:28:06.001Z,6.07
2019-03-10T03:33:21.073Z,5.88
2019-03-10T03:38:40.177Z,5.98
2019-03-10T03:43:46.600Z,6.18
2019-03-10T03:48:56.536Z,6.11
2019-03-10T03:54:06.182Z,6.20
2019-03-10T03:59:16.561Z,6.10
2019-03-10T04:04:29.621Z,5.92
2019-03-10T04:09:40.614Z,6.19
2019-03-10T04:14:49.086Z,5.92
2019-03-10T04:19:57.445Z,6.36
2019-03-10T04:25:08.712Z,6.24
2019-03-10T04:30:19.288Z,6.49
2019-03-10T04:35:26.476Z,6.33
2019-03-10T04:40:34.405Z,6.41
2019-03-10T04:45:47.872Z,6.85
2019-03-10T04:50:57.607Z,6.37
2019-03-10T04:56:13.016Z,6.61
2019-03-10T05:01:24.371Z,7.07
2019-03-10T05:06:34.337Z,7.01
2019-03-10T05:11:43.078Z,6.70
2019-03-10T05:16:50.852Z,6.20
2019-03-10T05:22:02.234Z,6.76
2019-03-10T05:27:10.422Z,6.51
2019-03-10T05:32:17.591Z,6.78
2019-03-10T05:37:24.628Z,6.82
2019-03-10T05:42:32.081Z,6.49
2019-03-10T05:47:42.056Z,6.82
2019-03-10T05:52:50.114Z,6.90
2019-03-10T05:57:56.153Z,6.92
2019-03-10T06:03:02.503Z,6.74
2019-03-10T06:08:08.523Z,7.04
2019-03-10T06:13:14.657Z,7.38
2019-03-10T06:18:21.714Z,7.39
2019-03-10T06:23:28.345Z,7.48
2019-03-10T06:28:34.112Z,7.26
2019-03-10T06:33:40.044Z,7.63
2019-03-10T06:38:46.712Z,7.50
2019-03-10T06:43:54.142Z,7.43
2019-03-10T06:49:00.169Z,7.47
2019-03-10T06:54:07.548Z,7.68
2019-03-10T06:59:13.299Z,7.95
2019-03-10T07:04:21.269Z,7.65
2019-03-10T07:09:28.458Z,7.94
2019-03-10T07:14:34.426Z,8.18
2019-03-10T07:19:40.511Z,8.14
2019-03-10T07:24:46.292Z,8.28
2019-03-10T07:29:56.731Z,8.48
2019-03-10T07:35:04.538Z,8.16
2019-03-10T07:40:12.007Z,8.29
2019-03-10T07:45:23.103Z,8.58
2019-03-10T07:50:34.225Z,8.29
2019-03-10T07:55:57.742Z,8.84
2019-03-10T08:01:17.090Z,8.68
2019-03-10T08:06:25.294Z,8.49
2019-03-10T08:11:49.776Z,8.73
2019-03-10T08:16:57.169Z,9.01
2019-03-10T08:22:11.513Z,9.14
2019-03-10T08:27:20.899Z,9.22
2019-03-10T08:32:31.791Z,9.68
2019-03-10T08:37:48.657Z,9.70
2019-03-10T08:43:05.611Z,9.80
2019-03-10T08:48:29.702Z,8.87
2019-03-10T08:53:40.421Z,9.95
2019-03-10T08:58:48.414Z,9.13
2019-03-10T09:03:56.098Z,9.62
2019-03-10T09:09:13.089Z,8.91
2019-03-10T09:14:22.565Z,9.68
2019-03-10T09:19:36.069Z,10.19
2019-03-10T09:24:55.083Z,9.76
2019-03-10T09:30:09.537Z,9.86
2019-03-10T09:35:26.971Z,9.98
2019-03-10T09:40:40.451Z,9.94
2019-03-10T09:45:47.790Z,10.31
2019-03-10T09:50:56.161Z,9.44
2019-03-10T09:56:10.355Z,10.54
2019-03-10T10:01:18.212Z,10.00
2019-03-10T10:06:26.774Z,9.80
2019-03-10T10:11:34.703Z,10.39
2019-03-10T10:16:41.950Z,10.50
2019-03-10T10:22:01.953Z,10.55
2019-03-10T10:27:27.304Z,9.88
2019-03-10T10:32:35.025Z,9.95
2019-03-10T10:37:56.738Z,9.77
2019-03-10T10:43:04.174Z,10.07
2019-03-10T10:48:25.086Z,10.43
2019-03-10T10:53:36.092Z,10.55
2019-03-10T10:58:47.084Z,10.59
2019-03-10T11:04:10.867Z,11.10
2019-03-10T11:09:22.299Z,11.07
2019-03-10T11:14:38.066Z,10.49
2019-03-10T11:19:49.520Z,10.25
2019-03-10T11:25:05.911Z,10.50
2019-03-10T11:30:18.511Z,11.13
2019-03-10T11:35:26.016Z,10.47
2019-03-10T11:40:33.580Z,9.70
2019-03-10T11:45:44.202Z,9.98
2019-03-10T11:51:07.769Z,10.58
2019-03-10T11:56:22.380Z,9.80
2019-03-10T12:01:29.793Z,9.33
2019-03-10T12:06:40.672Z,9.82
2019-03-10T12:11:47.384Z,9.83
2019-03-10T12:16:53.400Z,9.92
2019-03-10T12:21:59.495Z,10.26
2019-03-10T12:27:07.915Z,9.78
2019-03-10T12:32:13.575Z,10.49
2019-03-10T12:37:19.746Z,9.95
2019-03-10T12:42:25.804Z,10.21
2019-03-10T12:47:32.638Z,10.17
2019-03-10T12:52:38.528Z,10.04
2019-03-10T12:57:44.608Z,9.66
2019-03-10T13:02:52.054Z,10.08
2019-03-10T13:07:57.797Z,10.49
2019-03-10T13:13:04.149Z,10.07
2019-03-10T13:18:10.831Z,10.23
2019-03-10T13:23:16.544Z,10.48
2019-03-10T13:28:23.062Z,10.57
2019-03-10T13:33:30.209Z,10.82
2019-03-10T13:38:36.254Z,10.48
2019-03-10T13:43:42.126Z,10.36
2019-03-10T13:48:48.903Z,10.37
2019-03-10T13:53:56.602Z,10.08
2019-03-10T13:59:03.642Z,10.41
2019-03-10T14:04:11.532Z,10.51
2019-03-10T14:09:18.727Z,10.11
2019-03-10T14:14:25.261Z,10.27
2019-03-10T14:19:31.773Z,10.10
2019-03-10T14:24:39.006Z,10.44
2019-03-10T14:29:45.233Z,10.56
2019-03-10T14:34:52.802Z,10.76
2019-03-10T14:39:58.744Z,10.96
2019-03-10T14:45:09.254Z,11.15
2019-03-10T14:50:18.442Z,11.46
2019-03-10T14:55:25.596Z,11.55
2019-03-10T15:00:31.793Z,11.29
2019-03-10T15:05:37.781Z,11.12
2019-03-10T15:10:44.345Z,10.79
2019-03-10T15:15:52.133Z,10.56
2019-03-10T15:20:58.587Z,10.52
2019-03-10T15:26:04.615Z,10.61
2019-03-10T15:31:12.617Z,10.57
2019-03-10T15:36:20.943Z,10.70
2019-03-10T15:41:27.125Z,10.64
2019-03-10T15:46:33.362Z,10.82
2019-03-10T15:51:40.142Z,10.65
2019-03-10T15:56:46.409Z,10.68
2019-03-10T16:01:52.301Z,10.70
2019-03-10T16:06:59.449Z,10.80
2019-03-10T16:12:05.030Z,10.51
2019-03-10T16:17:11.787Z,10.49
2019-03-10T16:22:17.368Z,10.60
2019-03-10T16:27:23.161Z,10.51
2019-03-10T16:32:29.137Z,10.38
2019-03-10T16:37:35.893Z,10.18
2019-03-10T16:42:42.286Z,10.42
2019-03-10T16:47:50.168Z,10.33
2019-03-10T16:52:58.936Z,10.36
2019-03-10T16:58:04.986Z,9.95
2019-03-10T17:03:10.721Z,9.98
2019-03-10T17:08:17.507Z,9.89
2019-03-10T17:13:24.902Z,9.77
2019-03-10T17:18:31.414Z,9.68
2019-03-10T17:23:37.438Z,9.78
2019-03-10T17:28:44.963Z,9.66
2019-03-10T17:33:51.846Z,9.34
2019-03-10T17:38:57.790Z,9.62
2019-03-10T17:44:03.573Z,9.69
2019-03-10T17:49:09.132Z,9.75
2019-03-10T17:54:14.945Z,9.74
2019-03-10T17:59:20.785Z,9.86
2019-03-10T18:04:26.613Z,9.87
2019-03-10T18:09:32.163Z,9.81
2019-03-10T18:14:38.124Z,9.40
2019-03-10T18:19:45.778Z,9.10
2019-03-10T18:24:52.948Z,9.32
2019-03-10T18:29:58.662Z,9.42
2019-03-10T18:35:06.832Z,8.96
2019-03-10T18:40:18.858Z,8.14
2019-03-10T18:45:25.143Z,7.82
2019-03-10T18:50:31.587Z,7.96
2019-03-10T18:55:38.741Z,7.67
2019-03-10T19:00:46.366Z,7.72
2019-03-10T19:05:51.939Z,7.32
2019-03-10T19:10:58.210Z,7.03
2019-03-10T19:16:04.460Z,6.88
2019-03-10T19:21:11.755Z,6.21
2019-03-10T19:26:18.924Z,6.56
2019-03-10T19:31:25.007Z,5.89
2019-03-10T19:36:31.096Z,5.65
2019-03-10T19:41:36.961Z,5.47
2019-03-10T19:46:42.824Z,5.22
2019-03-10T19:51:48.698Z,4.77
2019-03-10T19:56:55.423Z,4.34
2019-03-10T20:02:01.230Z,3.80
2019-03-10T20:07:07.011Z,3.88
2019-03-10T20:12:14.271Z,3.54
2019-03-10T20:17:20.749Z,3.28
2019-03-10T20:22:26.586Z,3.20
2019-03-10T20:27:32.793Z,3.08
2019-03-10T20:32:38.666Z,3.40
2019-03-10T20:37:45.916Z,3.30
2019-03-10T20:42:51.619Z,2.87
2019-03-10T20:47:57.243Z,2.87
2019-03-10T20:53:02.949Z,2.97
2019-03-10T20:58:09.769Z,2.81
2019-03-10T21:03:15.544Z,2.91
2019-03-10T21:08:21.890Z,2.99
2019-03-10T21:13:27.530Z,2.64
2019-03-10T21:18:36.474Z,2.49
2019-03-10T21:23:42.844Z,2.66
2019-03-10T21:28:49.055Z,2.85
2019-03-10T21:33:55.220Z,3.01
2019-03-10T21:39:00.953Z,2.92
2019-03-10T21:44:11.639Z,3.36
2019-03-10T21:49:17.956Z,3.02
2019-03-10T21:54:23.588Z,3.30
2019-03-10T21:59:30.915Z,3.25
2019-03-10T22:04:37.679Z,3.07
2019-03-10T22:09:43.277Z,3.56
2019-03-10T22:14:48.962Z,3.40
2019-03-10T22:19:54.681Z,3.64
2019-03-10T22:25:12.173Z,3.39
2019-03-10T22:30:19.969Z,3.55
2019-03-10T22:35:25.571Z,3.60
2019-03-10T22:40:31.130Z,3.89
2019-03-10T22:45:38.307Z,3.94
2019-03-10T22:50:44.406Z,3.46
2019-03-10T22:55:50.647Z,4.25
2019-03-10T23:00:57.509Z,3.81
2019-03-10T23:06:04.690Z,3.74
2019-03-10T23:11:10.298Z,4.04
2019-03-10T23:16:16.061Z,4.08
2019-03-10T23:21:21.615Z,4.17
2019-03-10T23:26:27.182Z,4.48
2019-03-10T23:31:32.903Z,4.18
2019-03-10T23:36:38.581Z,4.09
2019-03-10T23:41:44.127Z,4.28
2019-03-10T23:46:50.588Z,4.36
2019-03-10T23:51:56.443Z,4.51
2019-03-10T23:57:03.841Z,4.45
